Time;durP1;ratioP1;P1;durP2;ratioP2;P2;SDS_P1;SDS_P2;PMS_P1;PMS_P2;Temp;Humidity;BMP_temperature;BMP_pressure;BME280_temperature;BME280_humidity;BME280_pressure;Samples;Min_cycle;Max_cycle;Signal;HPM_P1;HPM_P2
2021/04/06 00:01:14;;;;;;;;;;;;;;;0.65;100.00;99429.75;5117033;28;19932;-78
2021/04/06 00:03:41;;;;;;;;;;;;;;;0.67;100.00;99424.72;5132918;27;19934;-78
2021/04/06 00:06:08;;;;;;;;;;;;;;;0.65;100.00;99426.22;5117237;28;19969;-78
2021/04/06 00:08:34;;;;;;;;;;;;;;;0.60;100.00;99419.03;5115775;28;19924;-78
2021/04/06 00:11:03;;;;;;;;;;;;;;;0.62;100.00;99427.72;5116110;28;20324;-78
2021/04/06 00:13:33;;;;;;;;;;;;;;;0.58;100.00;99421.31;5116615;28;19930;-78
2021/04/06 00:16:02;;;;;;;;;;;;;;;0.56;100.00;99423.63;5116093;28;19945;-78
2021/04/06 00:18:28;;;;;;;;;;;;;;;0.58;100.00;99421.31;5116350;28;19923;-78
2021/04/06 00:20:57;;;;;;;;;;;;;;;0.60;100.00;99418.22;5115478;28;19931;-78
2021/04/06 00:23:25;;;;;;;;;;;;;;;0.53;100.00;99418.81;5116041;28;19934;-78
2021/04/06 00:25:52;;;;;;;;;;;;;;;0.55;100.00;99422.03;5131785;27;20023;-78
2021/04/06 00:28:22;;;;;;;;;;;;;;;0.58;100.00;99410.31;5116352;28;20458;-78
2021/04/06 00:30:49;;;;;;;;;;;;;;;0.54;100.00;99420.44;5116808;28;19932;-78
2021/04/06 00:33:27;;;;;;;;;;;;;;;0.51;100.00;99415.63;5116504;28;19924;-77
2021/04/06 00:35:54;;;;;;;;;;;;;;;0.55;100.00;99415.72;5116473;28;19970;-78
2021/04/06 00:38:22;;;;;;;;;;;;;;;0.49;100.00;99406.09;5116558;28;19977;-77
2021/04/06 00:40:51;;;;;;;;;;;;;;;0.45;100.00;99403.28;5116451;27;19952;-77
2021/04/06 00:43:18;;;;;;;;;;;;;;;0.34;100.00;99407.66;5115983;28;19977;-78
2021/04/06 00:45:46;;;;;;;;;;;;;;;0.34;100.00;99393.91;5114993;28;19928;-77
2021/04/06 00:48:18;;;;;;;;;;;;;;;0.29;100.00;99401.63;5116162;28;19928;-78
2021/04/06 00:51:12;;;;;;;;;;;;;;;0.29;100.00;99402.41;5115192;28;19923;-78
2021/04/06 00:53:53;;;;;;;;;;;;;;;0.25;100.00;99395.19;5131035;27;19923;-77
2021/04/06 00:56:40;;;;;;;;;;;;;;;0.27;100.00;99398.41;5116048;27;20009;-78
2021/04/06 00:59:11;;;;;;;;;;;;;;;0.24;100.00;99394.41;5116060;28;20061;-78
2021/04/06 01:01:42;;;;;;;;;;;;;;;0.24;100.00;99399.91;5116086;28;19947;-77
2021/04/06 01:04:10;;;;;;;;;;;;;;;0.35;100.00;99389.22;5115746;28;19931;-77
2021/04/06 01:06:55;;;;;;;;;;;;;;;0.32;100.00;99396.19;5115942;28;20394;-78
2021/04/06 01:09:41;;;;;;;;;;;;;;;0.33;100.00;99389.56;5097551;28;19977;-78
2021/04/06 01:12:08;;;;;;;;;;;;;;;0.27;100.00;99390.97;5110994;28;20022;-78
2021/04/06 01:14:35;;;;;;;;;;;;;;;0.24;100.00;99388.91;5115376;28;19923;-78
2021/04/06 01:17:03;;;;;;;;;;;;;;;0.18;100.00;99384.81;5115771;28;19946;-78
2021/04/06 01:19:30;;;;;;;;;;;;;;;0.17;100.00;99383.19;5101425;28;20701;-78
2021/04/06 01:21:57;;;;;;;;;;;;;;;0.11;100.00;99389.28;5115626;28;19931;-78
2021/04/06 01:24:25;;;;;;;;;;;;;;;0.09;100.00;99388.81;5115249;28;19924;-78
2021/04/06 01:26:52;;;;;;;;;;;;;;;0.12;100.00;99390.88;5115557;28;19928;-77
2021/04/06 01:29:19;;;;;;;;;;;;;;;0.08;100.00;99387.25;5115140;28;19932;-78
2021/04/06 01:31:46;;;;;;;;;;;;;;;0.08;100.00;99390.75;5115329;28;19930;-78
2021/04/06 01:34:13;;;;;;;;;;;;;;;0.11;100.00;99389.28;5115195;28;20264;-78
2021/04/06 01:51:26;;;;;;;;;;;;;;;0.11;100.00;99367.31;5089989;28;19958;-78
2021/04/06 01:53:53;;;;;;;;;;;;;;;0.14;100.00;99372.88;5114806;28;19924;-78
2021/04/06 01:56:26;;;;;;;;;;;;;;;0.03;100.00;99377.28;5076260;28;19947;-78
2021/04/06 01:58:57;;;;;;;;;;;;;;;0.06;100.00;99370.28;5109572;28;20282;-78
2021/04/06 02:01:24;;;;;;;;;;;;;;;0.07;100.00;99375.44;5114902;28;19970;-78
2021/04/06 02:06:25;;;;;;;;;;;;;;;0.07;100.00;99367.19;5113740;28;20382;-78
2021/04/06 02:08:53;;;;;;;;;;;;;;;0.07;100.00;99371.88;5113149;28;20876;-78
2021/04/06 02:11:24;;;;;;;;;;;;;;;0.08;100.00;99362.50;5114635;28;19952;-77
2021/04/06 02:13:51;;;;;;;;;;;;;;;0.04;100.00;99356.91;5113158;28;20021;-78
2021/04/06 02:16:18;;;;;;;;;;;;;;;0.10;100.00;99362.94;5113245;28;19924;-78
2021/04/06 02:18:50;;;;;;;;;;;;;;;0.10;100.00;99363.75;5114458;28;20358;-77
2021/04/06 02:21:17;;;;;;;;;;;;;;;0.10;100.00;99360.19;5114072;28;20008;-78
2021/04/06 02:23:45;;;;;;;;;;;;;;;0.03;100.00;99358.84;5113077;28;19972;-78
2021/04/06 02:26:15;;;;;;;;;;;;;;;0.03;100.00;99365.50;5114049;28;19946;-78
2021/04/06 02:28:41;;;;;;;;;;;;;;;-0.03;100.00;99364.91;5114331;28;20418;-78
2021/04/06 02:31:08;;;;;;;;;;;;;;;-0.08;100.00;99370.66;5114108;28;20385;-78
2021/04/06 02:33:36;;;;;;;;;;;;;;;-0.11;100.00;99374.09;5112862;28;20038;-78
2021/04/06 02:36:04;;;;;;;;;;;;;;;-0.13;100.00;99379.13;5112885;28;19928;-78
2021/04/06 02:38:32;;;;;;;;;;;;;;;-0.17;100.00;99367.25;5112813;28;19924;-78
2021/04/06 02:41:11;;;;;;;;;;;;;;;-0.22;100.00;99372.97;5112900;28;19935;-78
2021/04/06 02:43:47;;;;;;;;;;;;;;;-0.22;100.00;99364.72;5113880;28;19977;-78
2021/04/06 02:46:15;;;;;;;;;;;;;;;-0.26;100.00;99358.31;5114091;28;19923;-78
2021/04/06 02:48:47;;;;;;;;;;;;;;;-0.31;100.00;99355.81;5114151;28;19928;-78
2021/04/06 02:51:14;;;;;;;;;;;;;;;-0.36;100.00;99351.34;5113597;28;19927;-78
2021/04/06 02:53:41;;;;;;;;;;;;;;;-0.39;100.00;99348.47;5113694;28;19927;-78
2021/04/06 02:56:08;;;;;;;;;;;;;;;-0.42;100.00;99344.50;5113667;28;19932;-78
2021/04/06 02:58:38;;;;;;;;;;;;;;;-0.47;100.00;99349.44;5113681;28;19924;-78
2021/04/06 03:01:09;;;;;;;;;;;;;;;-0.50;100.00;99342.66;5113982;28;20387;-78
2021/04/06 03:03:36;;;;;;;;;;;;;;;-0.54;100.00;99354.66;5113802;28;19976;-78
2021/04/06 03:06:07;;;;;;;;;;;;;;;-0.57;100.00;99344.38;5113767;28;19949;-78
2021/04/06 03:08:35;;;;;;;;;;;;;;;-0.61;100.00;99355.25;5113707;28;19924;-78
2021/04/06 03:11:03;;;;;;;;;;;;;;;-0.64;100.00;99355.13;5112407;28;19924;-78
2021/04/06 03:13:29;;;;;;;;;;;;;;;-0.65;100.00;99350.81;5112536;28;19980;-78
2021/04/06 03:15:57;;;;;;;;;;;;;;;-0.69;100.00;99347.94;5113676;28;19924;-78
2021/04/06 03:18:30;;;;;;;;;;;;;;;-0.73;100.00;99355.25;5116968;28;19924;-78
2021/04/06 03:20:59;;;;;;;;;;;;;;;-0.71;100.00;99346.69;5117871;28;19984;-78
2021/04/06 03:23:26;;;;;;;;;;;;;;;-0.67;100.00;99353.09;5117815;28;19966;-78
2021/04/06 03:25:54;;;;;;;;;;;;;;;-0.70;100.00;99343.59;5117500;28;20010;-78
2021/04/06 03:28:29;;;;;;;;;;;;;;;-0.67;100.00;99350.34;5116530;28;19934;-78
2021/04/06 03:31:10;;;;;;;;;;;;;;;-0.68;100.00;99348.75;5117804;28;19931;-78
2021/04/06 03:33:39;;;;;;;;;;;;;;;-0.67;100.00;99348.41;5116414;28;19924;-78
2021/04/06 03:36:06;;;;;;;;;;;;;;;-0.72;100.00;99345.06;5116275;28;20298;-78
2021/04/06 03:38:33;;;;;;;;;;;;;;;-0.66;100.00;99350.00;5117697;28;20375;-78
2021/04/06 03:41:00;;;;;;;;;;;;;;;-0.58;100.00;99342.78;5116128;28;19969;-77
2021/04/06 03:43:27;;;;;;;;;;;;;;;-0.58;100.00;99343.59;5116288;28;19931;-78
2021/04/06 03:45:58;;;;;;;;;;;;;;;-0.58;100.00;99340.84;5117568;28;20282;-78
2021/04/06 03:48:28;;;;;;;;;;;;;;;-0.59;100.00;99332.97;5117395;28;19927;-78
2021/04/06 03:50:55;;;;;;;;;;;;;;;-0.61;100.00;99338.00;5117224;28;19927;-78
2021/04/06 03:53:23;;;;;;;;;;;;;;;-0.67;100.00;99337.44;5115706;28;20006;-78
2021/04/06 03:56:01;;;;;;;;;;;;;;;-0.68;100.00;99329.53;5108610;28;19947;-78
2021/04/06 03:58:30;;;;;;;;;;;;;;;-0.72;100.00;99336.84;5110932;28;19924;-78
2021/04/06 04:00:56;;;;;;;;;;;;;;;-0.68;100.00;99335.03;5116199;28;19951;-78
2021/04/06 04:03:24;;;;;;;;;;;;;;;-0.66;100.00;99338.22;5117037;28;19947;-77
2021/04/06 04:05:50;;;;;;;;;;;;;;;-0.65;100.00;99337.88;5117076;28;19928;-78
2021/04/06 04:08:17;;;;;;;;;;;;;;;-0.60;100.00;99332.16;5117028;28;20036;-78
2021/04/06 04:10:44;;;;;;;;;;;;;;;-0.64;100.00;99328.50;5117014;28;19958;-78
2021/04/06 04:13:10;;;;;;;;;;;;;;;-0.61;100.00;99332.50;5117140;28;20271;-78
2021/04/06 04:15:37;;;;;;;;;;;;;;;-0.61;100.00;99329.75;5116858;28;20018;-78
2021/04/06 04:18:04;;;;;;;;;;;;;;;-0.70;100.00;99337.31;5116940;28;19931;-78
2021/04/06 04:20:30;;;;;;;;;;;;;;;-0.66;100.00;99340.94;5116772;28;20041;-78
2021/04/06 04:22:57;;;;;;;;;;;;;;;-0.66;100.00;99338.22;5116742;28;19924;-78
2021/04/06 04:25:23;;;;;;;;;;;;;;;-0.75;100.00;99329.28;5116862;28;19931;-78
2021/04/06 04:27:50;;;;;;;;;;;;;;;-0.77;100.00;99337.06;5115312;28;19927;-78
2021/04/06 04:30:35;;;;;;;;;;;;;;;-0.77;100.00;99339.78;5115801;28;19923;-78
2021/04/06 04:33:03;;;;;;;;;;;;;;;-0.79;100.00;99328.38;5116442;28;19931;-78
2021/04/06 04:35:29;;;;;;;;;;;;;;;-0.85;100.00;99327.00;5116734;28;19960;-78
2021/04/06 04:37:56;;;;;;;;;;;;;;;-0.89;100.00;99326.06;5116404;28;19924;-78
2021/04/06 04:40:22;;;;;;;;;;;;;;;-0.96;100.00;99320.38;5116593;27;20026;-77
2021/04/06 04:42:49;;;;;;;;;;;;;;;-0.99;100.00;99329.28;5116280;28;20061;-78
2021/04/06 04:45:20;;;;;;;;;;;;;;;-0.99;100.00;99323.78;5116572;28;19931;-78
2021/04/06 04:47:47;;;;;;;;;;;;;;;-0.97;100.00;99337.97;5116277;27;20022;-78
2021/04/06 04:50:17;;;;;;;;;;;;;;;-0.96;100.00;99328.59;5116492;27;20377;-78
2021/04/06 04:52:44;;;;;;;;;;;;;;;-0.97;100.00;99322.28;5115979;28;19931;-78
2021/04/06 04:55:12;;;;;;;;;;;;;;;-0.96;100.00;99329.41;5131837;27;20329;-78
2021/04/06 04:57:39;;;;;;;;;;;;;;;-0.96;100.00;99334.06;5116285;28;19924;-78
2021/04/06 05:00:06;;;;;;;;;;;;;;;-1.01;100.00;99320.56;5116020;28;19924;-78
2021/04/06 05:02:33;;;;;;;;;;;;;;;-1.01;100.00;99315.91;5114908;28;19931;-78
2021/04/06 05:05:00;;;;;;;;;;;;;;;-1.05;100.00;99327.91;5131943;27;19924;-78
2021/04/06 05:07:26;;;;;;;;;;;;;;;-1.09;100.00;99324.25;5114599;28;20272;-78
2021/04/06 05:09:53;;;;;;;;;;;;;;;-1.04;100.00;99332.22;5114766;28;19923;-78
2021/04/06 05:12:20;;;;;;;;;;;;;;;-1.14;100.00;99338.16;5114551;28;19931;-78
2021/04/06 05:14:51;;;;;;;;;;;;;;;-1.07;100.00;99321.94;5116098;28;19924;-78
2021/04/06 05:17:17;;;;;;;;;;;;;;;-1.03;100.00;99320.13;5115636;28;19923;-78
2021/04/06 05:19:44;;;;;;;;;;;;;;;-1.04;100.00;99322.06;5114632;28;19967;-78
2021/04/06 05:22:10;;;;;;;;;;;;;;;-1.09;100.00;99325.03;5115487;28;19980;-78
2021/04/06 05:24:37;;;;;;;;;;;;;;;-1.09;100.00;99327.00;5115784;28;19950;-78
2021/04/06 05:27:04;;;;;;;;;;;;;;;-1.09;100.00;99318.75;5115611;28;19938;-78
2021/04/06 05:29:30;;;;;;;;;;;;;;;-1.03;100.00;99322.88;5115528;28;19930;-78
2021/04/06 05:31:57;;;;;;;;;;;;;;;-1.03;100.00;99322.88;5115534;28;19945;-78
2021/04/06 05:34:24;;;;;;;;;;;;;;;-1.01;100.00;99334.28;5114126;28;20503;-78
2021/04/06 05:36:50;;;;;;;;;;;;;;;-1.11;100.00;99326.50;5115101;28;20444;-78
2021/04/06 05:39:17;;;;;;;;;;;;;;;-1.16;100.00;99335.75;5114560;28;20307;-78
2021/04/06 05:41:45;;;;;;;;;;;;;;;-1.15;100.00;99340.09;5114443;28;19967;-78
2021/04/06 05:44:12;;;;;;;;;;;;;;;-1.16;100.00;99344.00;5114947;28;19963;-78
2021/04/06 05:46:40;;;;;;;;;;;;;;;-1.17;100.00;99344.31;5114455;28;19931;-77
2021/04/06 05:49:09;;;;;;;;;;;;;;;-1.16;100.00;99343.19;5114687;28;19930;-77
2021/04/06 05:51:37;;;;;;;;;;;;;;;-1.17;100.00;99341.59;5114308;28;19928;-78
2021/04/06 05:54:04;;;;;;;;;;;;;;;-1.21;100.00;99348.91;5113815;28;19931;-78
2021/04/06 05:56:30;;;;;;;;;;;;;;;-1.18;100.00;99342.75;5115027;28;20077;-78
2021/04/06 05:58:58;;;;;;;;;;;;;;;-1.22;100.00;99350.03;5114874;28;19946;-77
2021/04/06 06:01:29;;;;;;;;;;;;;;;-1.09;100.00;99343.44;5093425;28;19924;-77
2021/04/06 06:03:55;;;;;;;;;;;;;;;-1.00;100.00;99338.66;5113713;28;19930;-78
2021/04/06 06:06:22;;;;;;;;;;;;;;;-0.80;100.00;99343.22;5113563;28;19928;-76
2021/04/06 06:08:52;;;;;;;;;;;;;;;-0.63;100.00;99343.00;5113379;28;20004;-77
2021/04/06 06:11:19;;;;;;;;;;;;;;;-0.60;100.00;99343.13;5114880;28;19968;-80
2021/04/06 06:13:45;;;;;;;;;;;;;;;-0.49;100.00;99354.44;5107337;28;19931;-79
2021/04/06 06:16:12;;;;;;;;;;;;;;;-0.56;100.00;99349.53;5113973;28;19924;-79
2021/04/06 06:18:54;;;;;;;;;;;;;;;-0.50;100.00;99358.34;5113798;28;20493;-79
2021/04/06 06:21:21;;;;;;;;;;;;;;;-0.06;100.00;99360.09;5126609;27;19962;-79
2021/04/06 06:23:48;;;;;;;;;;;;;;;-0.06;100.00;99354.63;5100174;28;19931;-81
2021/04/06 06:26:15;;;;;;;;;;;;;;;-0.03;100.00;99364.91;5114035;28;19955;-79
2021/04/06 06:29:02;;;;;;;;;;;;;;;0.11;100.00;99362.59;5090466;28;20321;-79
2021/04/06 06:31:32;;;;;;;;;;;;;;;0.11;100.00;99350.81;5112979;28;20473;-79
2021/04/06 06:33:59;;;;;;;;;;;;;;;0.32;100.00;99360.47;5113929;28;20278;-79
2021/04/06 06:36:26;;;;;;;;;;;;;;;0.90;100.00;99350.69;5113864;28;20622;-79
2021/04/06 06:39:00;;;;;;;;;;;;;;;1.68;100.00;99359.78;5113588;28;19959;-79
2021/04/06 06:41:27;;;;;;;;;;;;;;;2.25;100.00;99342.53;5113297;27;20015;-79
2021/04/06 06:43:55;;;;;;;;;;;;;;;2.31;100.00;99332.81;5112068;28;19931;-79
2021/04/06 06:46:24;;;;;;;;;;;;;;;1.48;100.00;99336.88;5112972;28;19928;-79
2021/04/06 06:49:01;;;;;;;;;;;;;;;1.67;100.00;99342.44;5111890;28;19934;-79
2021/04/06 06:51:34;;;;;;;;;;;;;;;1.58;100.00;99341.81;5115621;27;19935;-79
2021/04/06 06:54:01;;;;;;;;;;;;;;;2.00;100.00;99341.22;5105773;28;20481;-79
2021/04/06 06:56:34;;;;;;;;;;;;;;;2.72;100.00;99343.09;5091881;28;20263;-79
2021/04/06 06:59:01;;;;;;;;;;;;;;;2.08;100.00;99335.47;5107615;28;19934;-81
2021/04/06 07:01:29;;;;;;;;;;;;;;;1.81;100.00;99337.25;5075908;28;20022;-76
2021/04/06 07:04:06;;;;;;;;;;;;;;;2.51;100.00;99332.47;5111688;28;19923;-76
2021/04/06 07:06:34;;;;;;;;;;;;;;;2.57;100.00;99330.19;5113151;28;20578;-77
2021/04/06 07:09:01;;;;;;;;;;;;;;;3.09;100.00;99322.13;5113687;28;19967;-77
2021/04/06 07:11:28;;;;;;;;;;;;;;;2.74;100.00;99321.47;5113604;28;20301;-77
2021/04/06 07:13:55;;;;;;;;;;;;;;;2.62;100.00;99322.41;5112261;28;20010;-77
2021/04/06 07:16:24;;;;;;;;;;;;;;;3.28;100.00;99322.03;5113511;28;20053;-77
2021/04/06 07:18:51;;;;;;;;;;;;;;;2.81;100.00;99321.59;5112677;28;19924;-77
2021/04/06 07:21:18;;;;;;;;;;;;;;;2.59;100.00;99316.84;5106437;28;19935;-77
2021/04/06 07:23:57;;;;;;;;;;;;;;;2.46;100.00;99315.38;5097912;28;19924;-77
2021/04/06 07:26:25;;;;;;;;;;;;;;;3.04;100.00;99316.91;5107277;28;19924;-77
2021/04/06 07:28:52;;;;;;;;;;;;;;;3.37;100.00;99317.06;5106769;28;19928;-77
2021/04/06 07:31:19;;;;;;;;;;;;;;;2.87;100.00;99322.88;5108476;28;20521;-80
2021/04/06 07:33:47;;;;;;;;;;;;;;;3.05;100.00;99329.53;5110588;28;19986;-83
2021/04/06 07:36:25;;;;;;;;;;;;;;;3.76;100.00;99331.50;5110351;28;20409;-77
2021/04/06 07:38:53;;;;;;;;;;;;;;;4.18;100.00;99321.06;5112341;28;19927;-79
2021/04/06 07:41:24;;;;;;;;;;;;;;;3.38;100.00;99332.47;5110583;28;19957;-76
2021/04/06 07:43:52;;;;;;;;;;;;;;;3.23;100.00;99322.34;5112844;28;19935;-75
2021/04/06 07:46:34;;;;;;;;;;;;;;;3.13;100.00;99328.50;5111580;28;19924;-76
2021/04/06 07:49:03;;;;;;;;;;;;;;;2.87;100.00;99317.38;5112103;28;20345;-76
2021/04/06 07:51:31;;;;;;;;;;;;;;;2.98;100.00;99318.38;5112760;28;19927;-76
2021/04/06 07:54:03;;;;;;;;;;;;;;;2.93;100.00;99316.72;5105670;28;19931;-75
2021/04/06 07:56:51;;;;;;;;;;;;;;;2.82;100.00;99320.41;5084150;28;20026;-75
2021/04/06 07:59:17;;;;;;;;;;;;;;;2.59;100.00;99305.81;5110592;28;19935;-76
2021/04/06 08:01:54;;;;;;;;;;;;;;;2.66;100.00;99319.72;5102175;28;19930;-76
2021/04/06 08:04:23;;;;;;;;;;;;;;;3.04;100.00;99308.63;5102763;28;19923;-76
2021/04/06 08:06:54;;;;;;;;;;;;;;;2.45;100.00;99305.53;5115684;28;20363;-76
2021/04/06 08:09:34;;;;;;;;;;;;;;;2.49;100.00;99317.41;5098417;28;19924;-76
2021/04/06 08:12:05;;;;;;;;;;;;;;;2.59;100.00;99305.81;5113628;28;20448;-76
2021/04/06 08:14:36;;;;;;;;;;;;;;;2.80;100.00;99317.25;5116064;28;19923;-76
2021/04/06 08:17:21;;;;;;;;;;;;;;;2.95;100.00;99306.09;5116389;28;20022;-76
2021/04/06 08:20:08;;;;;;;;;;;;;;;3.51;100.00;99301.50;5116621;28;19931;-77
2021/04/06 08:22:48;;;;;;;;;;;;;;;2.80;100.00;99298.72;5114485;28;20754;-76
2021/04/06 08:25:16;;;;;;;;;;;;;;;2.97;100.00;99283.66;5115947;28;19924;-76
2021/04/06 08:27:43;;;;;;;;;;;;;;;3.24;100.00;99282.53;5116110;27;20316;-76
2021/04/06 08:30:19;;;;;;;;;;;;;;;3.04;100.00;99292.06;5116504;28;20006;-75
2021/04/06 08:32:57;;;;;;;;;;;;;;;2.95;100.00;99297.81;5116316;28;19924;-75
2021/04/06 08:35:39;;;;;;;;;;;;;;;2.83;100.00;99288.91;5107049;28;19996;-75
2021/04/06 08:38:39;;;;;;;;;;;;;;;2.85;100.00;99286.56;5115361;28;19924;-75
2021/04/06 08:41:06;;;;;;;;;;;;;;;2.58;100.00;99277.41;5116171;28;20564;-76
2021/04/06 08:43:35;;;;;;;;;;;;;;;2.46;100.00;99271.25;5115931;28;20386;-76
2021/04/06 08:46:06;;;;;;;;;;;;;;;2.64;100.00;99287.00;5115704;28;19924;-76
2021/04/06 08:51:27;;;;;;;;;;;;;;;2.70;100.00;99281.97;5115405;28;19927;-76
2021/04/06 08:53:58;;;;;;;;;;;;;;;2.78;100.00;99284.50;5115440;28;20388;-76
2021/04/06 08:56:27;;;;;;;;;;;;;;;2.95;100.00;99284.03;5101703;28;20399;-76
2021/04/06 08:59:12;;;;;;;;;;;;;;;3.08;100.00;99281.84;5113457;28;20027;-75
2021/04/06 09:01:40;;;;;;;;;;;;;;;2.89;100.00;99281.94;5114246;28;20060;-75
2021/04/06 09:04:11;;;;;;;;;;;;;;;2.91;100.00;99290.63;5113926;28;19931;-76
2021/04/06 09:06:38;;;;;;;;;;;;;;;2.89;100.00;99292.97;5115487;28;20475;-76
2021/04/06 09:09:04;;;;;;;;;;;;;;;2.89;100.00;99285.47;5114984;27;19923;-76
2021/04/06 09:11:31;;;;;;;;;;;;;;;2.75;100.00;99285.22;5114981;28;19929;-76
2021/04/06 09:13:57;;;;;;;;;;;;;;;2.60;100.00;99286.13;5114469;28;20402;-76
2021/04/06 09:16:28;;;;;;;;;;;;;;;2.92;100.00;99278.44;5113177;28;20313;-76
2021/04/06 09:18:57;;;;;;;;;;;;;;;2.94;100.00;99279.66;5114836;28;20287;-76
2021/04/06 09:21:25;;;;;;;;;;;;;;;2.86;100.00;99293.69;5113526;28;20389;-76
2021/04/06 09:23:54;;;;;;;;;;;;;;;2.84;100.00;99290.50;5114588;28;19923;-76
2021/04/06 09:26:21;;;;;;;;;;;;;;;2.89;100.00;99292.97;5113559;28;19924;-76
2021/04/06 09:28:58;;;;;;;;;;;;;;;2.78;100.00;99275.41;5114515;28;19958;-76
2021/04/06 09:31:26;;;;;;;;;;;;;;;3.11;100.00;99268.13;5113532;28;19946;-76
2021/04/06 09:34:00;;;;;;;;;;;;;;;3.06;100.00;99262.13;5114467;28;20005;-76
2021/04/06 09:36:27;;;;;;;;;;;;;;;3.05;100.00;99274.31;5114298;28;19927;-76
2021/04/06 09:38:54;;;;;;;;;;;;;;;2.86;100.00;99271.63;5114509;27;19924;-76
2021/04/06 09:41:34;;;;;;;;;;;;;;;2.88;100.00;99269.28;5114427;28;19928;-76
2021/04/06 09:44:02;;;;;;;;;;;;;;;2.80;100.00;99260.06;5114393;28;20023;-76
2021/04/06 09:46:41;;;;;;;;;;;;;;;2.91;100.00;99263.81;5114132;28;19924;-76
2021/04/06 09:49:08;;;;;;;;;;;;;;;2.70;100.00;99265.41;5114366;28;19924;-76
2021/04/06 09:51:44;;;;;;;;;;;;;;;2.85;100.00;99267.25;5113813;28;19923;-76
2021/04/06 09:54:10;;;;;;;;;;;;;;;2.66;100.00;99259.84;5114246;28;19923;-76
2021/04/06 09:56:38;;;;;;;;;;;;;;;2.65;100.00;99257.44;5113889;28;19924;-75
2021/04/06 09:59:06;;;;;;;;;;;;;;;3.01;100.00;99262.41;5113996;28;19923;-76
2021/04/06 10:01:37;;;;;;;;;;;;;;;2.81;100.00;99269.16;5095830;28;19923;-76
2021/04/06 10:04:04;;;;;;;;;;;;;;;3.01;100.00;99262.41;5114063;28;19967;-76
2021/04/06 10:06:35;;;;;;;;;;;;;;;3.09;100.00;99267.69;5113933;28;19930;-76
2021/04/06 10:09:18;;;;;;;;;;;;;;;3.09;100.00;99261.38;5113761;28;20035;-76
2021/04/06 10:11:46;;;;;;;;;;;;;;;3.18;100.00;99250.88;5113680;28;20293;-76
2021/04/06 10:14:13;;;;;;;;;;;;;;;3.14;100.00;99261.06;5112298;28;19929;-76
2021/04/06 10:16:40;;;;;;;;;;;;;;;3.16;100.00;99248.50;5112520;28;20383;-76
2021/04/06 10:19:17;;;;;;;;;;;;;;;3.16;100.00;99258.72;5113926;28;19992;-76
2021/04/06 10:21:44;;;;;;;;;;;;;;;3.07;100.00;99272.00;5113557;28;20235;-76
2021/04/06 10:24:11;;;;;;;;;;;;;;;3.08;100.00;99268.03;5113506;27;19923;-76
2021/04/06 10:26:37;;;;;;;;;;;;;;;3.09;100.00;99264.13;5112443;28;19923;-76
2021/04/06 10:29:05;;;;;;;;;;;;;;;3.18;100.00;99251.66;5113370;28;20451;-76
2021/04/06 10:31:42;;;;;;;;;;;;;;;3.23;100.00;99250.53;5113487;28;19923;-76
2021/04/06 10:34:09;;;;;;;;;;;;;;;3.30;100.00;99250.69;5113388;28;19967;-76
2021/04/06 10:36:36;;;;;;;;;;;;;;;3.01;100.00;99238.38;5109585;28;19924;-76
2021/04/06 10:39:04;;;;;;;;;;;;;;;3.10;100.00;99251.91;5110420;28;20428;-76
2021/04/06 10:41:34;;;;;;;;;;;;;;;3.21;100.00;99233.56;5096584;28;20053;-76
2021/04/06 10:44:03;;;;;;;;;;;;;;;3.32;100.00;99242.78;5112466;28;20001;-76
2021/04/06 10:46:30;;;;;;;;;;;;;;;3.33;100.00;99230.59;5112855;28;20018;-76
2021/04/06 10:49:05;;;;;;;;;;;;;;;3.33;100.00;99236.13;5113415;28;19924;-76
2021/04/06 10:51:33;;;;;;;;;;;;;;;3.27;100.00;99210.78;5112794;28;19934;-76
2021/04/06 10:54:02;;;;;;;;;;;;;;;3.53;100.00;99221.81;5111701;28;20420;-76
2021/04/06 10:56:29;;;;;;;;;;;;;;;3.43;100.00;99213.38;5113052;28;19959;-76
2021/04/06 10:59:02;;;;;;;;;;;;;;;3.70;100.00;99213.00;5113011;28;20012;-76
2021/04/06 11:01:37;;;;;;;;;;;;;;;3.36;100.00;99203.00;5113025;28;19924;-76
2021/04/06 11:04:11;;;;;;;;;;;;;;;3.29;100.00;99202.13;5104492;28;20271;-76
2021/04/06 11:06:42;;;;;;;;;;;;;;;3.64;100.00;99203.44;5102982;28;19932;-76
2021/04/06 11:09:13;;;;;;;;;;;;;;;3.54;100.00;99217.88;5103505;28;19931;-76
2021/04/06 11:11:40;;;;;;;;;;;;;;;3.60;100.00;99199.81;5112217;28;20029;-77
2021/04/06 11:14:09;;;;;;;;;;;;;;;3.68;100.00;99214.53;5106274;28;19979;-77
2021/04/06 11:16:37;;;;;;;;;;;;;;;3.74;100.00;99190.94;5109267;28;20283;-76
2021/04/06 11:19:09;;;;;;;;;;;;;;;3.72;100.00;99187.75;5095494;28;20011;-77
2021/04/06 11:21:42;;;;;;;;;;;;;;;3.59;100.00;99206.50;5108194;28;19924;-76
2021/04/06 11:24:09;;;;;;;;;;;;;;;3.65;100.00;99204.22;5105953;28;19928;-76
2021/04/06 11:26:36;;;;;;;;;;;;;;;3.91;100.00;99200.63;5113188;28;19923;-76
2021/04/06 11:29:05;;;;;;;;;;;;;;;4.02;100.00;99207.84;5109062;28;20017;-76
2021/04/06 11:31:32;;;;;;;;;;;;;;;4.12;100.00;99174.00;5108569;28;19923;-76
2021/04/06 11:33:59;;;;;;;;;;;;;;;4.35;100.00;99191.25;5103915;28;19931;-76
2021/04/06 11:36:26;;;;;;;;;;;;;;;4.03;100.00;99192.84;5107884;28;20069;-76
2021/04/06 11:38:52;;;;;;;;;;;;;;;4.10;100.00;99190.19;5109944;28;19942;-76
2021/04/06 11:41:19;;;;;;;;;;;;;;;4.13;100.00;99194.97;5095531;28;20535;-76
2021/04/06 11:43:46;;;;;;;;;;;;;;;3.97;100.00;99204.63;5105775;28;19924;-76
2021/04/06 11:46:14;;;;;;;;;;;;;;;3.56;100.00;99195.41;5113036;28;19931;-76
2021/04/06 11:48:41;;;;;;;;;;;;;;;3.57;100.00;99183.97;5113385;28;20020;-76
2021/04/06 11:51:08;;;;;;;;;;;;;;;3.51;100.00;99182.72;5112550;28;20394;-76
2021/04/06 11:53:35;;;;;;;;;;;;;;;3.93;100.00;99189.97;5111824;28;19924;-76
2021/04/06 11:56:02;;;;;;;;;;;;;;;4.33;100.00;99176.97;5102889;28;19960;-76
2021/04/06 11:58:29;;;;;;;;;;;;;;;4.61;100.00;99180.06;5107944;28;19935;-76
2021/04/06 12:00:56;;;;;;;;;;;;;;;3.97;100.00;99202.66;5112775;28;19932;-76
2021/04/06 12:03:22;;;;;;;;;;;;;;;3.67;100.00;99185.28;5113269;28;19932;-76
2021/04/06 12:05:49;;;;;;;;;;;;;;;3.58;100.00;99187.53;5111479;28;19927;-76
2021/04/06 12:08:15;;;;;;;;;;;;;;;3.73;100.00;99183.78;5111916;28;19931;-76
2021/04/06 12:10:44;;;;;;;;;;;;;;;4.04;100.00;99172.34;5112864;27;20023;-76
2021/04/06 12:13:11;;;;;;;;;;;;;;;4.19;100.00;99168.56;5111461;28;20282;-76
2021/04/06 12:15:38;;;;;;;;;;;;;;;3.82;100.00;99187.06;5113154;28;19924;-76
2021/04/06 12:18:05;;;;;;;;;;;;;;;3.97;100.00;99174.22;5109155;28;19923;-76
2021/04/06 12:20:32;;;;;;;;;;;;;;;4.30;100.00;99180.50;5101447;28;19946;-76
2021/04/06 12:22:59;;;;;;;;;;;;;;;4.21;100.00;99166.19;5112067;28;19924;-76
2021/04/06 12:25:43;;;;;;;;;;;;;;;3.87;100.00;99195.03;5111198;28;19928;-76
2021/04/06 12:28:10;;;;;;;;;;;;;;;3.66;100.00;99206.59;5110769;28;19923;-75
2021/04/06 12:30:36;;;;;;;;;;;;;;;3.30;100.00;99214.78;5112237;28;19955;-76
2021/04/06 12:33:04;;;;;;;;;;;;;;;3.10;100.00;99238.13;5111409;28;20057;-76
2021/04/06 12:35:31;;;;;;;;;;;;;;;3.12;100.00;99220.00;5112101;28;19932;-76
2021/04/06 12:37:57;;;;;;;;;;;;;;;3.50;100.00;99216.22;5110562;28;19973;-76
2021/04/06 12:40:24;;;;;;;;;;;;;;;3.87;100.00;99206.09;5110212;28;20001;-76
2021/04/06 12:42:51;;;;;;;;;;;;;;;4.21;100.00;99193.06;5111882;28;19931;-77
2021/04/06 12:45:18;;;;;;;;;;;;;;;3.98;100.00;99184.09;5111702;28;19931;-77
2021/04/06 12:47:45;;;;;;;;;;;;;;;4.24;100.00;99187.56;5112284;28;19931;-77
2021/04/06 12:50:15;;;;;;;;;;;;;;;4.27;100.00;99197.09;5110653;28;19970;-76
2021/04/06 12:52:42;;;;;;;;;;;;;;;4.48;100.00;99189.81;5110172;28;19942;-76
2021/04/06 12:55:11;;;;;;;;;;;;;;;4.60;100.00;99194.28;5110257;28;19938;-76
2021/04/06 12:57:38;;;;;;;;;;;;;;;4.55;100.00;99178.81;5110467;28;20010;-76
2021/04/06 13:00:06;;;;;;;;;;;;;;;4.85;100.00;99204.38;5111732;28;20438;-76
2021/04/06 13:02:33;;;;;;;;;;;;;;;4.86;100.00;99205.19;5111468;28;19931;-76
2021/04/06 13:05:01;;;;;;;;;;;;;;;4.56;100.00;99204.53;5111570;28;20446;-76
2021/04/06 13:07:27;;;;;;;;;;;;;;;4.29;100.00;99212.13;5111278;28;19935;-76
2021/04/06 13:09:54;;;;;;;;;;;;;;;4.20;100.00;99203.34;5112341;28;20073;-77
2021/04/06 13:12:21;;;;;;;;;;;;;;;4.00;100.00;99209.41;5110124;28;19928;-77
2021/04/06 13:14:48;;;;;;;;;;;;;;;3.71;100.00;99220.09;5111343;28;19949;-76